Time;durP1;ratioP1;P1;durP2;ratioP2;P2;SDS_P1;SDS_P2;PMS_P1;PMS_P2;Temp;Humidity;BMP_temperature;BMP_pressure;BME280_temperature;BME280_humidity;BME280_pressure;Samples;Min_cycle;Max_cycle;Signal;HPM_P1;HPM_P2
2023/04/30 00:01:00;;;;;;;1.25;0.90;;;13.30;99.90;;;;;;5113767;28;20435;-50
2023/04/30 00:03:26;;;;;;;1.25;0.85;;;13.30;99.90;;;;;;5114905;28;20425;-53
2023/04/30 00:05:55;;;;;;;1.50;0.90;;;13.20;99.90;;;;;;5114172;28;20881;-51
2023/04/30 00:08:22;;;;;;;1.30;0.82;;;13.20;99.90;;;;;;5112996;28;20420;-54
2023/04/30 00:10:49;;;;;;;1.92;0.98;;;13.10;99.90;;;;;;5114057;28;20485;-53
2023/04/30 00:13:17;;;;;;;1.73;0.90;;;13.20;99.90;;;;;;5116354;28;20424;-53
2023/04/30 00:15:44;;;;;;;1.50;1.00;;;13.30;99.90;;;;;;5116965;28;20430;-53
2023/04/30 00:18:11;;;;;;;1.67;1.10;;;13.40;99.90;;;;;;5115974;28;20519;-54
2023/04/30 00:20:38;;;;;;;1.45;1.02;;;13.40;99.90;;;;;;5113267;28;20493;-55
2023/04/30 00:23:07;;;;;;;1.60;1.10;;;13.30;99.90;;;;;;5115871;28;20688;-53
2023/04/30 00:25:34;;;;;;;1.80;0.90;;;13.40;99.90;;;;;;5115232;28;20485;-54
2023/04/30 00:28:01;;;;;;;2.10;1.20;;;13.30;99.90;;;;;;5114702;28;20448;-52
2023/04/30 00:30:28;;;;;;;1.40;1.00;;;13.30;99.90;;;;;;5114485;28;20477;-52
2023/04/30 00:32:55;;;;;;;1.50;1.00;;;13.30;99.90;;;;;;5115314;28;20436;-52
2023/04/30 00:35:22;;;;;;;1.40;0.90;;;13.30;99.90;;;;;;5115394;28;20427;-55
2023/04/30 00:37:49;;;;;;;1.90;1.20;;;13.30;99.90;;;;;;5114233;28;20691;-53
2023/04/30 00:40:17;;;;;;;1.70;1.00;;;13.40;99.90;;;;;;5113754;28;20428;-54
2023/04/30 00:42:44;;;;;;;1.70;1.00;;;13.60;99.90;;;;;;5113602;28;20824;-52
2023/04/30 00:45:11;;;;;;;1.50;1.00;;;13.50;99.90;;;;;;5114290;28;20424;-49
2023/04/30 00:47:38;;;;;;;1.50;1.10;;;13.30;99.90;;;;;;5114719;28;20432;-51
2023/04/30 00:50:06;;;;;;;1.50;1.10;;;13.30;99.90;;;;;;5113595;28;20490;-53
2023/04/30 00:52:34;;;;;;;2.25;1.05;;;13.30;99.90;;;;;;5114463;28;20778;-54
2023/04/30 00:55:01;;;;;;;2.80;1.10;;;13.30;99.90;;;;;;5115214;28;20424;-53
2023/04/30 00:57:30;;;;;;;1.50;1.00;;;13.40;99.90;;;;;;5116853;28;20480;-55
2023/04/30 00:59:57;;;;;;;1.48;1.00;;;13.50;99.90;;;;;;5114994;28;20424;-55
2023/04/30 01:02:24;;;;;;;1.50;1.10;;;13.50;99.90;;;;;;5115867;28;20428;-52
2023/04/30 01:04:52;;;;;;;1.58;1.10;;;13.40;99.90;;;;;;5116092;28;20442;-51
2023/04/30 01:07:19;;;;;;;1.70;1.20;;;13.30;99.90;;;;;;5115545;28;20416;-55
2023/04/30 01:09:46;;;;;;;1.50;1.20;;;13.40;99.90;;;;;;5114228;28;20428;-54
2023/04/30 01:12:21;;;;;;;1.40;1.10;;;13.40;99.90;;;;;;5113847;28;20473;-53
2023/04/30 01:15:04;;;;;;;1.65;1.00;;;13.50;99.90;;;;;;5112154;28;20481;-55
2023/04/30 01:17:37;;;;;;;1.92;1.20;;;13.40;99.90;;;;;;5114378;28;20423;-54
2023/04/30 01:20:07;;;;;;;1.80;1.20;;;13.40;99.90;;;;;;5114249;28;20661;-55
2023/04/30 01:22:44;;;;;;;1.63;1.20;;;13.40;99.90;;;;;;5113659;28;20428;-55
2023/04/30 01:25:36;;;;;;;2.30;1.38;;;13.30;99.90;;;;;;5115525;28;20488;-52
2023/04/30 01:28:06;;;;;;;1.70;1.20;;;13.20;99.90;;;;;;5114625;28;20511;-53
2023/04/30 01:30:34;;;;;;;1.90;1.10;;;13.20;99.90;;;;;;5114853;28;20428;-52
2023/04/30 01:33:02;;;;;;;1.70;1.20;;;13.10;99.90;;;;;;5113052;28;20428;-55
2023/04/30 01:36:04;;;;;;;1.90;1.20;;;13.10;99.90;;;;;;5114652;28;20420;-54
2023/04/30 01:38:46;;;;;;;1.85;1.35;;;13.10;99.90;;;;;;5054245;28;20485;-56
2023/04/30 01:41:25;;;;;;;2.75;1.60;;;12.90;99.90;;;;;;5114669;28;20836;-52
2023/04/30 01:44:04;;;;;;;4.90;1.40;;;13.00;99.90;;;;;;5113557;28;20415;-53
2023/04/30 01:46:31;;;;;;;1.70;1.20;;;13.00;99.90;;;;;;5114770;28;20477;-55
2023/04/30 01:49:09;;;;;;;2.05;1.40;;;12.90;99.90;;;;;;5114816;28;20480;-49
2023/04/30 01:51:41;;;;;;;3.17;1.60;;;13.00;99.90;;;;;;5115612;28;20471;-50
2023/04/30 01:54:17;;;;;;;1.70;1.30;;;13.10;99.90;;;;;;5112963;28;20518;-55
2023/04/30 01:56:51;;;;;;;2.30;1.30;;;13.10;99.90;;;;;;5114585;28;20416;-53
2023/04/30 01:59:20;;;;;;;3.80;1.60;;;13.00;99.90;;;;;;5112065;28;20416;-54
2023/04/30 02:01:47;;;;;;;2.40;1.50;;;13.10;99.90;;;;;;5114692;28;20445;-54
2023/04/30 02:04:14;;;;;;;3.43;1.40;;;13.10;99.90;;;;;;5109210;28;20940;-54
2023/04/30 02:06:41;;;;;;;1.90;1.40;;;13.10;99.90;;;;;;5108038;28;20526;-54
2023/04/30 02:09:09;;;;;;;2.47;1.50;;;12.90;99.90;;;;;;5112253;28;20424;-53
2023/04/30 02:11:36;;;;;;;3.10;2.15;;;12.90;99.90;;;;;;5112138;28;20630;-55
2023/04/30 02:14:03;;;;;;;1.95;1.40;;;13.00;99.90;;;;;;5110197;28;20770;-55
2023/04/30 02:16:31;;;;;;;2.97;1.60;;;12.90;99.90;;;;;;5110749;28;20435;-55
2023/04/30 02:18:58;;;;;;;2.40;1.80;;;12.80;99.90;;;;;;5111941;28;20620;-53
2023/04/30 02:21:26;;;;;;;3.33;2.08;;;12.90;99.90;;;;;;5113011;28;20435;-54
2023/04/30 02:23:53;;;;;;;2.25;1.58;;;12.70;99.90;;;;;;5113933;28;20412;-53
2023/04/30 02:26:20;;;;;;;3.23;1.50;;;12.80;99.90;;;;;;5113195;28;20473;-51
2023/04/30 02:28:47;;;;;;;3.50;2.00;;;12.80;99.90;;;;;;5113763;28;20426;-51
2023/04/30 02:31:14;;;;;;;2.90;2.10;;;12.80;99.90;;;;;;5114290;28;20592;-55
2023/04/30 02:33:42;;;;;;;3.20;2.03;;;12.70;99.90;;;;;;5114604;28;20599;-55
2023/04/30 02:36:09;;;;;;;3.63;2.30;;;12.50;99.90;;;;;;5113752;28;20492;-53
2023/04/30 02:38:36;;;;;;;3.30;1.90;;;12.40;99.90;;;;;;5111970;28;20412;-52
2023/04/30 02:41:03;;;;;;;4.20;2.38;;;12.40;99.90;;;;;;5114875;28;20431;-53
2023/04/30 02:43:30;;;;;;;3.00;2.00;;;12.30;99.90;;;;;;5113961;28;21322;-54
2023/04/30 02:45:57;;;;;;;4.20;2.00;;;12.40;99.90;;;;;;5114195;28;20845;-55
2023/04/30 02:48:24;;;;;;;3.58;2.20;;;12.40;99.90;;;;;;5112895;28;20443;-53
2023/04/30 02:50:53;;;;;;;3.20;2.35;;;12.40;99.90;;;;;;5113743;28;20447;-55
2023/04/30 02:53:20;;;;;;;4.17;2.67;;;12.40;99.90;;;;;;5114236;28;20435;-50
2023/04/30 02:55:47;;;;;;;2.92;2.00;;;12.50;99.90;;;;;;5114501;28;20504;-52
2023/04/30 02:58:14;;;;;;;3.08;1.63;;;12.50;99.90;;;;;;5112946;28;20820;-53
2023/04/30 03:00:41;;;;;;;3.38;2.33;;;12.50;99.90;;;;;;5115702;28;20704;-53
2023/04/30 03:03:08;;;;;;;2.95;2.13;;;12.50;99.90;;;;;;5118072;28;20423;-52
2023/04/30 03:05:34;;;;;;;4.28;2.47;;;12.40;99.90;;;;;;5118629;28;20423;-55
2023/04/30 03:08:03;;;;;;;3.70;2.60;;;12.20;99.90;;;;;;5117550;28;20477;-53
2023/04/30 03:10:30;;;;;;;4.55;2.53;;;12.10;99.90;;;;;;5117123;28;20428;-54
2023/04/30 03:12:57;;;;;;;2.90;1.88;;;12.00;99.90;;;;;;5117654;28;20414;-56
2023/04/30 03:15:24;;;;;;;3.30;2.20;;;12.10;99.90;;;;;;5118640;28;20774;-54
2023/04/30 03:17:51;;;;;;;3.08;2.30;;;12.20;99.90;;;;;;5118223;28;20419;-55
2023/04/30 03:20:18;;;;;;;4.40;2.65;;;12.20;99.90;;;;;;5115372;28;20835;-54
2023/04/30 03:22:45;;;;;;;2.70;2.00;;;12.20;99.90;;;;;;5116298;28;20450;-53
2023/04/30 03:25:13;;;;;;;3.47;2.20;;;12.30;99.90;;;;;;5116083;28;20415;-55
2023/04/30 03:27:40;;;;;;;2.83;2.03;;;12.30;99.90;;;;;;5116472;28;20476;-52
2023/04/30 03:30:08;;;;;;;3.20;2.03;;;12.40;99.90;;;;;;5115159;28;20469;-52
2023/04/30 03:32:35;;;;;;;3.70;2.70;;;12.50;99.90;;;;;;5115774;28;20827;-54
2023/04/30 03:35:02;;;;;;;3.38;2.25;;;12.50;99.90;;;;;;5117534;28;20436;-53
2023/04/30 03:37:29;;;;;;;3.42;2.38;;;12.40;99.90;;;;;;5117118;28;20716;-52
2023/04/30 03:39:56;;;;;;;2.30;1.90;;;12.40;99.90;;;;;;5115713;28;20428;-52
2023/04/30 03:42:25;;;;;;;3.47;2.60;;;12.40;99.90;;;;;;5115098;28;20835;-52
2023/04/30 03:44:52;;;;;;;4.50;2.17;;;12.30;99.90;;;;;;5116883;28;20500;-53
2023/04/30 03:47:19;;;;;;;4.90;2.80;;;12.10;99.90;;;;;;5116850;28;20416;-54
2023/04/30 03:49:53;;;;;;;4.40;2.40;;;12.10;99.90;;;;;;5116470;28;20433;-54
2023/04/30 03:52:20;;;;;;;2.80;2.43;;;12.10;99.90;;;;;;5117199;28;20515;-53
2023/04/30 03:54:47;;;;;;;3.00;2.00;;;12.10;99.90;;;;;;5116593;28;20431;-53
2023/04/30 03:57:15;;;;;;;2.63;1.73;;;12.30;99.90;;;;;;5117245;28;20435;-54
2023/04/30 03:59:43;;;;;;;5.03;2.45;;;12.40;99.90;;;;;;5117084;28;20481;-54
2023/04/30 04:02:10;;;;;;;2.70;2.00;;;12.40;99.90;;;;;;5115774;28;20428;-54
2023/04/30 04:04:37;;;;;;;3.13;2.05;;;12.60;99.90;;;;;;5115392;28;20439;-53
2023/04/30 04:07:06;;;;;;;3.70;2.17;;;12.50;99.90;;;;;;5116521;28;20420;-55
2023/04/30 04:09:33;;;;;;;3.97;2.45;;;12.50;99.90;;;;;;5117111;28;20412;-56
2023/04/30 04:12:01;;;;;;;4.07;2.53;;;12.50;99.90;;;;;;5116274;28;20469;-52
2023/04/30 04:14:28;;;;;;;3.33;2.50;;;12.50;99.90;;;;;;5117040;28;20439;-54
2023/04/30 04:16:58;;;;;;;3.13;2.35;;;12.50;99.90;;;;;;5116937;28;20420;-54
2023/04/30 04:19:25;;;;;;;3.70;2.92;;;12.50;99.90;;;;;;5116728;28;20420;-53
2023/04/30 04:21:52;;;;;;;3.80;2.20;;;12.50;99.90;;;;;;5116983;28;20735;-53
2023/04/30 04:24:19;;;;;;;2.88;2.10;;;12.40;99.90;;;;;;5116828;28;20419;-55
2023/04/30 04:26:46;;;;;;;4.38;2.40;;;12.40;99.90;;;;;;5116518;28;20481;-53
2023/04/30 04:29:13;;;;;;;3.80;2.30;;;12.40;99.90;;;;;;5115334;28;20419;-52
2023/04/30 04:31:41;;;;;;;4.05;2.45;;;12.40;99.90;;;;;;5115553;28;20508;-54
2023/04/30 04:34:10;;;;;;;4.35;3.03;;;12.50;99.90;;;;;;5115690;28;20428;-52
2023/04/30 04:36:37;;;;;;;3.75;2.55;;;12.50;99.90;;;;;;5115338;28;20419;-52
2023/04/30 04:39:05;;;;;;;3.40;2.30;;;12.40;99.90;;;;;;5114947;28;20835;-54
2023/04/30 04:41:32;;;;;;;3.90;2.55;;;12.40;99.90;;;;;;5113880;28;20428;-54
2023/04/30 04:44:00;;;;;;;3.80;2.50;;;12.60;99.90;;;;;;5114781;28;20455;-54
2023/04/30 04:46:28;;;;;;;4.10;2.90;;;12.60;99.90;;;;;;5115511;28;20873;-54
2023/04/30 04:48:55;;;;;;;3.15;2.42;;;12.60;99.90;;;;;;5114232;28;20477;-52
2023/04/30 04:51:24;;;;;;;3.83;2.33;;;12.50;99.90;;;;;;5115001;28;20840;-51
2023/04/30 04:53:51;;;;;;;3.55;2.30;;;12.50;99.90;;;;;;5114803;28;20412;-52
2023/04/30 04:56:18;;;;;;;3.70;2.70;;;12.50;99.90;;;;;;5114829;28;20492;-53
2023/04/30 04:58:45;;;;;;;4.38;2.90;;;12.60;99.90;;;;;;5114059;28;20476;-52
2023/04/30 05:01:12;;;;;;;3.53;2.15;;;12.60;99.90;;;;;;5114838;28;20511;-54
2023/04/30 05:03:39;;;;;;;4.57;3.20;;;12.60;99.90;;;;;;5114202;28;20478;-51
2023/04/30 05:06:06;;;;;;;4.90;2.70;;;12.50;99.90;;;;;;5114432;28;20469;-54
2023/04/30 05:08:35;;;;;;;3.90;2.53;;;12.40;99.90;;;;;;5113958;28;20419;-54
2023/04/30 05:11:02;;;;;;;4.60;2.50;;;12.30;99.90;;;;;;5113637;28;20424;-54
2023/04/30 05:13:29;;;;;;;3.00;2.70;;;12.40;99.90;;;;;;5114862;28;20832;-54
2023/04/30 05:15:56;;;;;;;2.77;2.10;;;12.40;99.90;;;;;;5114983;28;20507;-55
2023/04/30 05:18:23;;;;;;;4.30;2.15;;;12.50;99.90;;;;;;5114420;28;20828;-53
2023/04/30 05:20:50;;;;;;;3.50;2.60;;;12.70;99.90;;;;;;5114314;28;20514;-53
2023/04/30 05:23:17;;;;;;;4.25;2.35;;;12.70;99.90;;;;;;5114388;28;20416;-52
2023/04/30 05:25:45;;;;;;;3.90;2.10;;;12.50;99.90;;;;;;5115369;28;20425;-54
2023/04/30 05:28:12;;;;;;;4.40;2.30;;;12.40;99.90;;;;;;5115099;28;20831;-51
2023/04/30 05:30:39;;;;;;;3.90;2.65;;;12.60;99.90;;;;;;5114883;28;20435;-53
2023/04/30 05:33:06;;;;;;;3.60;1.60;;;12.70;99.90;;;;;;5115556;28;20486;-52
2023/04/30 05:35:34;;;;;;;3.50;2.25;;;12.80;99.90;;;;;;5114651;28;20779;-52
2023/04/30 05:38:02;;;;;;;3.80;2.30;;;12.80;99.90;;;;;;5113686;28;20448;-54
2023/04/30 05:40:29;;;;;;;3.95;2.53;;;12.70;99.90;;;;;;5114070;28;20930;-54
2023/04/30 05:42:58;;;;;;;3.65;2.30;;;12.60;99.90;;;;;;5114030;28;20495;-52
2023/04/30 05:45:25;;;;;;;3.20;2.10;;;12.60;99.90;;;;;;5113354;28;20424;-49
2023/04/30 05:47:53;;;;;;;3.10;1.90;;;12.60;99.90;;;;;;5112718;28;20687;-54
2023/04/30 05:50:20;;;;;;;4.35;2.30;;;12.80;99.90;;;;;;5112211;28;20512;-54
2023/04/30 05:52:47;;;;;;;3.00;2.20;;;12.90;99.90;;;;;;5114683;28;20863;-52
2023/04/30 05:55:14;;;;;;;4.78;2.22;;;13.00;99.90;;;;;;5114689;28;20431;-53
2023/04/30 05:57:41;;;;;;;4.40;2.53;;;12.80;99.90;;;;;;5114770;28;20412;-55
2023/04/30 06:00:11;;;;;;;3.15;2.00;;;12.70;99.90;;;;;;5113612;28;20420;-54
2023/04/30 06:02:38;;;;;;;4.45;2.10;;;12.80;99.90;;;;;;5114825;28;20431;-52
2023/04/30 06:05:07;;;;;;;3.38;2.05;;;12.90;99.90;;;;;;5113376;28;20775;-53
2023/04/30 06:07:34;;;;;;;3.40;2.30;;;13.10;99.90;;;;;;5113628;28;20990;-48
2023/04/30 06:10:01;;;;;;;3.00;2.03;;;13.20;99.90;;;;;;5111706;28;20497;-56
2023/04/30 06:12:28;;;;;;;2.65;2.38;;;13.30;99.90;;;;;;5111899;28;20450;-52
2023/04/30 06:14:56;;;;;;;2.90;2.38;;;13.50;99.90;;;;;;5111406;28;20489;-53
2023/04/30 06:17:24;;;;;;;4.05;2.25;;;13.60;99.90;;;;;;5112594;28;20528;-54
2023/04/30 06:19:51;;;;;;;2.90;2.10;;;13.60;99.90;;;;;;5113758;28;20481;-52
2023/04/30 06:22:18;;;;;;;3.00;2.30;;;13.60;99.90;;;;;;5114939;28;20416;-54
2023/04/30 06:24:45;;;;;;;3.47;2.35;;;13.50;99.90;;;;;;5113954;28;20428;-54
2023/04/30 06:27:12;;;;;;;2.88;1.92;;;13.50;99.90;;;;;;5114716;28;20781;-62
2023/04/30 06:29:39;;;;;;;3.70;2.20;;;13.40;99.90;;;;;;5114354;28;20489;-63
2023/04/30 06:32:07;;;;;;;2.85;2.55;;;13.60;99.90;;;;;;5112737;28;20481;-63
2023/04/30 06:34:36;;;;;;;3.05;2.30;;;13.70;99.90;;;;;;5112813;28;20744;-63
2023/04/30 06:37:03;;;;;;;2.60;2.13;;;13.50;99.90;;;;;;5113224;28;20467;-63
2023/04/30 06:39:30;;;;;;;4.40;2.50;;;13.60;99.90;;;;;;5113828;28;20452;-62
2023/04/30 06:41:57;;;;;;;3.30;2.28;;;13.50;99.90;;;;;;5112270;28;20845;-62
2023/04/30 06:44:24;;;;;;;3.70;2.60;;;13.60;99.90;;;;;;5113813;28;20415;-62
2023/04/30 06:46:51;;;;;;;2.42;1.75;;;13.50;99.90;;;;;;5113490;28;20480;-63
2023/04/30 06:49:18;;;;;;;2.85;2.03;;;13.50;99.90;;;;;;5113630;28;20916;-61
2023/04/30 06:51:46;;;;;;;3.13;2.10;;;13.70;99.90;;;;;;5112861;28;20803;-62
2023/04/30 06:54:14;;;;;;;2.85;1.90;;;13.70;99.90;;;;;;5112208;28;20446;-63
2023/04/30 06:56:42;;;;;;;3.10;2.25;;;13.70;99.90;;;;;;5110107;28;20528;-62
2023/04/30 06:59:09;;;;;;;3.33;2.03;;;13.60;99.90;;;;;;5111083;28;20489;-62
2023/04/30 07:01:37;;;;;;;3.25;2.38;;;13.60;99.90;;;;;;5110826;28;20460;-63
2023/04/30 07:04:04;;;;;;;2.80;2.05;;;13.70;99.90;;;;;;5111113;28;20416;-63
2023/04/30 07:06:31;;;;;;;2.85;2.17;;;13.90;99.90;;;;;;5112144;28;20427;-65
2023/04/30 07:08:59;;;;;;;3.10;2.20;;;13.90;99.90;;;;;;5112146;28;20423;-62
2023/04/30 07:11:27;;;;;;;2.58;1.88;;;13.90;99.90;;;;;;5112648;28;20485;-62
2023/04/30 07:13:54;;;;;;;3.83;2.03;;;13.90;99.90;;;;;;5112390;28;20420;-63
2023/04/30 07:16:21;;;;;;;3.60;2.00;;;13.90;99.90;;;;;;5112110;28;21008;-62
2023/04/30 07:18:48;;;;;;;2.30;1.90;;;13.90;99.90;;;;;;5111947;28;20416;-62
2023/04/30 07:21:17;;;;;;;2.97;2.05;;;14.00;99.90;;;;;;5113541;28;20460;-63
2023/04/30 07:23:44;;;;;;;4.10;2.28;;;14.10;99.90;;;;;;5112486;28;20416;-63
2023/04/30 07:26:13;;;;;;;2.47;1.40;;;14.20;99.90;;;;;;5112646;28;20420;-62
2023/04/30 07:28:40;;;;;;;2.63;1.60;;;14.40;99.90;;;;;;5110572;28;20447;-63
2023/04/30 07:31:07;;;;;;;2.78;1.90;;;14.50;99.90;;;;;;5111102;28;21067;-63
2023/04/30 07:33:34;;;;;;;2.78;1.70;;;14.40;99.90;;;;;;5110566;28;20498;-63
2023/04/30 07:36:01;;;;;;;2.63;2.30;;;14.30;99.90;;;;;;5110451;28;20428;-63
2023/04/30 07:38:28;;;;;;;2.50;2.08;;;14.40;99.90;;;;;;5111263;28;20725;-63
2023/04/30 07:40:55;;;;;;;3.25;1.50;;;14.40;99.90;;;;;;5112096;28;20900;-62
2023/04/30 07:43:24;;;;;;;3.20;1.95;;;14.50;99.90;;;;;;5112755;28;20424;-63
2023/04/30 07:45:53;;;;;;;3.60;1.90;;;14.40;99.90;;;;;;5114586;28;20505;-63
2023/04/30 07:48:20;;;;;;;2.60;1.65;;;14.40;99.90;;;;;;5117089;28;20868;-63
2023/04/30 07:50:48;;;;;;;2.35;1.90;;;14.60;99.90;;;;;;5115323;28;20424;-64
2023/04/30 07:53:15;;;;;;;2.28;1.50;;;14.70;99.90;;;;;;5116702;28;20476;-63
2023/04/30 07:55:42;;;;;;;2.40;2.00;;;14.90;99.90;;;;;;5116043;28;20439;-63
2023/04/30 07:58:09;;;;;;;3.10;1.50;;;15.00;99.90;;;;;;5113739;28;20874;-63
2023/04/30 08:00:37;;;;;;;2.45;1.70;;;14.90;99.90;;;;;;5113430;28;20428;-63
2023/04/30 08:03:04;;;;;;;2.70;1.60;;;15.00;99.90;;;;;;5114959;28;20424;-64
2023/04/30 08:05:31;;;;;;;1.90;1.50;;;15.10;99.90;;;;;;5114028;28;20427;-63
2023/04/30 08:07:58;;;;;;;2.08;1.50;;;14.90;99.90;;;;;;5115643;28;20469;-63
2023/04/30 08:10:25;;;;;;;1.70;1.30;;;14.90;99.90;;;;;;5114820;28;20424;-63
2023/04/30 08:12:52;;;;;;;1.75;1.40;;;14.90;99.90;;;;;;5114615;28;20866;-64
2023/04/30 08:15:20;;;;;;;1.60;1.25;;;15.00;99.90;;;;;;5114350;28;20439;-63
2023/04/30 08:17:49;;;;;;;1.83;1.38;;;15.00;99.90;;;;;;5115500;28;20428;-63
2023/04/30 08:20:16;;;;;;;2.50;1.30;;;15.20;99.90;;;;;;5114855;28;20516;-64
2023/04/30 08:22:43;;;;;;;2.13;1.40;;;15.30;99.90;;;;;;5114957;28;20836;-61
2023/04/30 08:25:11;;;;;;;1.70;1.20;;;15.50;99.90;;;;;;5111347;28;20424;-62
2023/04/30 08:27:39;;;;;;;1.60;1.20;;;15.50;99.90;;;;;;5111983;28;20772;-63
2023/04/30 08:30:07;;;;;;;1.70;1.20;;;15.60;99.90;;;;;;5112151;28;20427;-64
2023/04/30 08:32:35;;;;;;;3.10;1.10;;;15.50;99.90;;;;;;5114467;28;20420;-62
2023/04/30 08:35:04;;;;;;;1.60;1.00;;;15.60;99.90;;;;;;5114854;28;20435;-65
2023/04/30 08:37:31;;;;;;;1.80;1.00;;;15.90;99.90;;;;;;5114977;28;20420;-63
2023/04/30 08:39:58;;;;;;;1.20;1.00;;;15.80;99.90;;;;;;5114907;28;20428;-61
2023/04/30 08:42:30;;;;;;;1.80;1.10;;;15.90;99.90;;;;;;5116081;28;20416;-61
2023/04/30 08:45:00;;;;;;;1.30;0.95;;;16.00;99.90;;;;;;5114198;28;20498;-62
2023/04/30 08:47:27;;;;;;;1.50;1.10;;;15.90;99.90;;;;;;5112214;28;20420;-63
2023/04/30 08:49:54;;;;;;;1.10;0.90;;;15.90;99.90;;;;;;5112070;28;20420;-62
2023/04/30 08:52:24;;;;;;;1.30;0.90;;;15.90;99.90;;;;;;5111989;28;20459;-63
2023/04/30 08:54:54;;;;;;;1.00;0.80;;;15.90;99.90;;;;;;5114995;28;20424;-63
2023/04/30 08:57:21;;;;;;;1.00;0.80;;;16.10;99.90;;;;;;5111982;28;20416;-62
2023/04/30 08:59:48;;;;;;;1.33;0.70;;;16.10;99.90;;;;;;5113160;28;20522;-63
2023/04/30 09:02:15;;;;;;;0.98;0.70;;;16.30;99.90;;;;;;5113820;28;20839;-62
2023/04/30 09:04:42;;;;;;;1.20;0.70;;;16.60;99.90;;;;;;5114699;28;20473;-61
2023/04/30 09:07:10;;;;;;;1.13;0.70;;;16.90;99.90;;;;;;5114168;28;20404;-63
2023/04/30 09:09:40;;;;;;;1.40;0.80;;;16.90;99.90;;;;;;5112911;28;20432;-61
2023/04/30 09:12:16;;;;;;;0.98;0.70;;;17.10;99.90;;;;;;5112126;28;20420;-62
2023/04/30 09:14:58;;;;;;;1.05;0.80;;;17.20;99.90;;;;;;5112953;28;20911;-64
2023/04/30 09:17:26;;;;;;;1.05;0.80;;;17.50;99.90;;;;;;5113432;28;20408;-64
2023/04/30 09:19:53;;;;;;;1.10;0.80;;;17.70;99.90;;;;;;5113265;28;20420;-63
2023/04/30 09:22:21;;;;;;;1.20;0.80;;;17.70;99.90;;;;;;5113225;28;20436;-63
2023/04/30 09:24:50;;;;;;;1.00;0.80;;;17.90;99.90;;;;;;5113349;28;20428;-63
2023/04/30 09:27:18;;;;;;;1.00;0.80;;;17.70;99.90;;;;;;5113113;28;20465;-62
2023/04/30 09:29:46;;;;;;;1.02;0.70;;;17.50;99.90;;;;;;5113482;28;20549;-62
2023/04/30 09:32:13;;;;;;;1.35;0.80;;;17.60;99.90;;;;;;5112742;28;20730;-64
2023/04/30 09:34:42;;;;;;;1.00;0.80;;;17.80;99.90;;;;;;5113289;28;20504;-62
2023/04/30 09:37:09;;;;;;;0.90;0.70;;;17.50;99.90;;;;;;5113437;28;20799;-64
2023/04/30 09:39:49;;;;;;;0.90;0.60;;;17.60;99.90;;;;;;5111913;28;20503;-62
2023/04/30 09:42:18;;;;;;;1.03;0.70;;;17.80;99.90;;;;;;5099940;28;20420;-61
2023/04/30 09:44:45;;;;;;;1.13;0.80;;;17.90;99.90;;;;;;5112412;28;20809;-63
2023/04/30 09:47:13;;;;;;;0.90;0.60;;;17.90;99.90;;;;;;5095530;28;20434;-62
2023/04/30 09:49:42;;;;;;;1.02;0.70;;;17.60;99.90;;;;;;5091493;28;20533;-62
2023/04/30 09:52:10;;;;;;;0.90;0.70;;;17.50;99.90;;;;;;5092874;28;20421;-61
2023/04/30 09:54:38;;;;;;;1.00;0.70;;;17.60;99.90;;;;;;5092337;28;20417;-63
2023/04/30 09:57:10;;;;;;;1.30;0.70;;;17.60;99.90;;;;;;5093173;28;20430;-62
2023/04/30 09:59:38;;;;;;;1.00;0.60;;;17.60;99.90;;;;;;5093045;28;20418;-62
2023/04/30 10:02:06;;;;;;;0.90;0.60;;;17.60;99.90;;;;;;5093128;28;20425;-61
2023/04/30 10:04:35;;;;;;;0.90;0.70;;;17.50;99.90;;;;;;5093372;28;20919;-63
2023/04/30 10:07:06;;;;;;;0.80;0.60;;;17.60;99.90;;;;;;5094034;28;20418;-63
2023/04/30 10:09:40;;;;;;;0.90;0.60;;;17.30;99.90;;;;;;5092123;28;20504;-63
2023/04/30 10:12:20;;;;;;;1.08;0.60;;;17.30;99.90;;;;;;5091047;28;20418;-63
2023/04/30 10:14:52;;;;;;;1.00;0.60;;;17.40;99.90;;;;;;5091834;28;20737;-62
2023/04/30 10:17:24;;;;;;;0.80;0.60;;;17.50;99.90;;;;;;5092564;28;20436;-63
2023/04/30 10:19:54;;;;;;;0.80;0.60;;;17.60;99.90;;;;;;5092750;28;20426;-62
2023/04/30 10:22:22;;;;;;;1.30;0.60;;;17.60;99.90;;;;;;5093661;28;20453;-63
2023/04/30 10:24:49;;;;;;;0.90;0.60;;;17.80;99.90;;;;;;5091819;28;20480;-63
2023/04/30 10:27:18;;;;;;;0.90;0.70;;;17.90;99.90;;;;;;5091113;28;20756;-63
2023/04/30 10:29:47;;;;;;;0.90;0.60;;;17.70;99.60;;;;;;5091026;28;20422;-63
2023/04/30 10:32:15;;;;;;;0.90;0.60;;;17.80;99.90;;;;;;5092729;28;20410;-62
2023/04/30 10:34:50;;;;;;;0.80;0.60;;;17.90;99.90;;;;;;5092165;28;20532;-62
2023/04/30 10:37:24;;;;;;;1.80;0.70;;;18.00;98.70;;;;;;5092337;28;20432;-63
2023/04/30 10:39:51;;;;;;;1.40;0.60;;;18.00;98.60;;;;;;5092803;28;21028;-62
2023/04/30 10:42:20;;;;;;;1.50;0.70;;;18.20;99.40;;;;;;5091396;28;20745;-61
2023/04/30 10:44:47;;;;;;;0.90;0.60;;;18.10;98.80;;;;;;5091651;28;20906;-62
2023/04/30 10:47:18;;;;;;;1.10;0.80;;;17.90;99.90;;;;;;5092791;28;20418;-62
2023/04/30 10:49:47;;;;;;;1.00;0.70;;;18.00;99.90;;;;;;5092424;28;20872;-62
2023/04/30 10:52:14;;;;;;;0.98;0.70;;;18.10;99.90;;;;;;5092682;28;20457;-63
2023/04/30 10:54:50;;;;;;;1.70;0.70;;;18.10;99.20;;;;;;5093133;28;20418;-63
2023/04/30 10:57:20;;;;;;;1.00;0.80;;;18.00;99.60;;;;;;5091224;28;20430;-62
2023/04/30 10:59:53;;;;;;;1.40;0.70;;;18.10;99.60;;;;;;5091793;28;20434;-62
2023/04/30 11:02:20;;;;;;;1.10;0.80;;;18.30;99.00;;;;;;5092514;28;20425;-62
2023/04/30 11:05:10;;;;;;;1.00;0.77;;;18.20;98.80;;;;;;5090580;28;20432;-61
2023/04/30 11:07:37;;;;;;;1.80;0.80;;;18.10;99.00;;;;;;5092422;28;20857;-61
2023/04/30 11:10:09;;;;;;;0.90;0.80;;;18.20;98.80;;;;;;5092094;28;20455;-62
2023/04/30 11:12:41;;;;;;;1.10;0.80;;;18.20;99.10;;;;;;5092203;28;20458;-63
2023/04/30 11:15:13;;;;;;;1.00;0.80;;;18.30;99.90;;;;;;5092361;28;20425;-62
2023/04/30 11:17:40;;;;;;;1.00;0.80;;;18.30;98.80;;;;;;5092075;28;20430;-62
2023/04/30 11:20:12;;;;;;;1.20;0.90;;;18.20;98.00;;;;;;5092923;28;20705;-64
2023/04/30 11:22:40;;;;;;;1.20;0.90;;;18.30;99.10;;;;;;5097088;28;20475;-64
2023/04/30 11:25:09;;;;;;;1.10;0.80;;;18.50;99.20;;;;;;5097219;28;20763;-64
2023/04/30 11:27:40;;;;;;;1.20;0.90;;;18.70;97.80;;;;;;5097004;28;20475;-64
2023/04/30 11:30:12;;;;;;;1.10;0.80;;;18.50;96.80;;;;;;5097651;28;20432;-64
2023/04/30 11:32:40;;;;;;;1.17;0.80;;;18.20;98.60;;;;;;5096134;28;20422;-63
2023/04/30 11:35:08;;;;;;;2.10;0.80;;;18.20;96.50;;;;;;5093404;28;20417;-63
2023/04/30 11:37:37;;;;;;;1.45;0.80;;;18.20;96.60;;;;;;5092957;28;20448;-63
2023/04/30 11:40:07;;;;;;;1.50;0.80;;;18.00;97.30;;;;;;5093603;28;20426;-64
2023/04/30 11:42:34;;;;;;;1.10;0.80;;;18.00;96.90;;;;;;5091872;28;20838;-64
2023/04/30 11:45:08;;;;;;;1.10;0.90;;;17.70;97.80;;;;;;5092346;28;20429;-63
2023/04/30 11:47:43;;;;;;;1.60;0.70;;;17.90;97.80;;;;;;5092051;28;20421;-61
2023/04/30 11:50:11;;;;;;;0.93;0.80;;;18.00;98.50;;;;;;5091864;28;20430;-60
2023/04/30 11:52:39;;;;;;;1.00;0.80;;;18.10;98.10;;;;;;5092160;28;20475;-63
2023/04/30 11:55:08;;;;;;;1.00;0.80;;;18.20;97.30;;;;;;5091690;28;20849;-62
2023/04/30 11:57:40;;;;;;;1.17;0.90;;;18.20;98.00;;;;;;5090751;28;20429;-62
2023/04/30 12:00:16;;;;;;;1.20;0.80;;;18.20;97.50;;;;;;5093143;28;20517;-62
2023/04/30 12:02:45;;;;;;;1.20;0.70;;;18.20;97.30;;;;;;5093888;28;20421;-62
2023/04/30 12:05:15;;;;;;;1.20;0.80;;;18.40;98.00;;;;;;5093202;28;20565;-62
2023/04/30 12:07:50;;;;;;;1.40;0.80;;;18.60;97.20;;;;;;5093132;28;20860;-62
2023/04/30 12:10:19;;;;;;;1.40;0.90;;;18.60;97.20;;;;;;5107869;28;20432;-62
2023/04/30 12:12:48;;;;;;;0.90;0.70;;;18.70;96.60;;;;;;5112288;28;20424;-62
2023/04/30 12:15:18;;;;;;;1.00;0.80;;;18.80;97.60;;;;;;5113922;28;20847;-63
2023/04/30 12:17:46;;;;;;;1.50;0.73;;;18.90;96.50;;;;;;5114498;28;20432;-63
2023/04/30 12:20:14;;;;;;;0.90;0.70;;;18.80;95.30;;;;;;5113899;28;20481;-63
2023/04/30 12:22:42;;;;;;;1.00;0.70;;;18.70;95.30;;;;;;5113704;28;20839;-60
2023/04/30 12:25:12;;;;;;;0.80;0.60;;;18.50;95.00;;;;;;5114113;28;20485;-62
2023/04/30 12:27:40;;;;;;;0.80;0.60;;;18.30;96.20;;;;;;5113856;28;20442;-61
2023/04/30 12:30:09;;;;;;;1.00;0.70;;;18.50;95.40;;;;;;5113378;28;20507;-62
2023/04/30 12:32:42;;;;;;;1.20;0.70;;;18.50;96.10;;;;;;5111572;28;20477;-62
2023/04/30 12:35:13;;;;;;;0.90;0.60;;;18.50;95.10;;;;;;5113518;28;20425;-62
2023/04/30 12:37:43;;;;;;;0.90;0.70;;;18.40;94.80;;;;;;5114081;28;20427;-63
2023/04/30 12:40:11;;;;;;;0.90;0.60;;;18.30;94.00;;;;;;5115570;28;20535;-63
2023/04/30 12:42:38;;;;;;;1.00;0.70;;;18.20;95.00;;;;;;5113577;28;20484;-62
2023/04/30 12:45:06;;;;;;;1.27;0.80;;;18.10;95.50;;;;;;5112619;28;20428;-61
2023/04/30 12:47:38;;;;;;;1.10;0.75;;;18.30;95.20;;;;;;5112487;28;20901;-62
2023/04/30 12:50:09;;;;;;;1.10;0.80;;;18.40;95.50;;;;;;5112416;28;20554;-61
2023/04/30 12:52:36;;;;;;;2.80;1.60;;;18.60;94.30;;;;;;5111493;28;20451;-61
2023/04/30 12:55:15;;;;;;;0.90;0.70;;;18.40;94.20;;;;;;5111749;28;20715;-61